createdAt,value
2019-05-23T00:01:01.259Z,19.63
2019-05-23T00:03:51.362Z,21.07
2019-05-23T00:06:41.138Z,22.17
2019-05-23T00:09:25.883Z,19.90
2019-05-23T00:11:59.911Z,23.47
2019-05-23T00:14:43.995Z,21.30
2019-05-23T00:17:15.704Z,17.80
2019-05-23T00:19:42.905Z,19.90
2019-05-23T00:22:11.095Z,19.43
2019-05-23T00:24:39.947Z,17.60
2019-05-23T00:27:06.534Z,19.07
2019-05-23T00:29:32.962Z,18.60
2019-05-23T00:32:16.657Z,18.87
2019-05-23T00:34:43.492Z,16.47
2019-05-23T00:37:09.878Z,18.13
2019-05-23T00:39:36.427Z,18.50
2019-05-23T00:42:04.023Z,18.50
2019-05-23T00:44:31.509Z,17.77
2019-05-23T00:46:58.494Z,19.23
2019-05-23T00:49:26.108Z,19.23
2019-05-23T00:51:53.055Z,18.47
2019-05-23T00:54:19.473Z,18.77
2019-05-23T00:56:46.866Z,17.17
2019-05-23T00:59:25.973Z,18.37
2019-05-23T01:01:42.390Z,19.13
2019-05-23T01:04:10.346Z,18.67
2019-05-23T01:06:37.971Z,18.10
2019-05-23T01:09:06.488Z,18.47
2019-05-23T01:11:33.863Z,18.73
2019-05-23T01:14:00.183Z,19.63
2019-05-23T01:16:29.242Z,18.87
2019-05-23T01:18:55.758Z,19.23
2019-05-23T01:21:29.780Z,19.67
2019-05-23T01:24:01.053Z,20.00
2019-05-23T01:26:28.292Z,18.77
2019-05-23T01:28:58.716Z,17.97
2019-05-23T01:31:32.766Z,17.67
2019-05-23T01:33:59.388Z,17.30
2019-05-23T01:36:25.758Z,17.87
2019-05-23T01:38:52.324Z,19.57
2019-05-23T01:41:20.091Z,18.93
2019-05-23T01:43:47.454Z,19.73
2019-05-23T01:46:13.900Z,19.57
2019-05-23T01:48:41.359Z,19.10
2019-05-23T01:51:09.244Z,18.43
2019-05-23T01:53:36.218Z,20.03
2019-05-23T01:56:03.780Z,20.43
2019-05-23T01:58:30.210Z,21.57
2019-05-23T02:00:57.816Z,21.30
2019-05-23T02:03:25.740Z,22.80
2019-05-23T02:05:52.189Z,21.13
2019-05-23T02:08:18.866Z,22.53
2019-05-23T02:10:45.815Z,21.90
2019-05-23T02:13:13.208Z,23.87
2019-05-23T02:15:39.581Z,24.30
2019-05-23T02:18:06.903Z,22.90
2019-05-23T02:20:34.711Z,22.03
2019-05-23T02:23:02.443Z,21.57
2019-05-23T02:25:29.816Z,21.80
2019-05-23T02:27:56.804Z,22.57
2019-05-23T02:30:34.254Z,21.67
2019-05-23T02:32:52.245Z,22.87
2019-05-23T02:35:18.997Z,21.73
2019-05-23T02:37:50.304Z,21.60
2019-05-23T02:40:25.344Z,21.77
2019-05-23T02:43:02.458Z,21.23
2019-05-23T02:45:40.555Z,20.50
2019-05-23T02:48:14.600Z,19.83
2019-05-23T02:50:52.698Z,19.70
2019-05-23T02:53:23.205Z,19.70
2019-05-23T02:55:53.726Z,19.50
2019-05-23T02:58:25.484Z,18.97
2019-05-23T03:01:03.914Z,19.40
2019-05-23T03:03:32.384Z,17.90
2019-05-23T03:06:01.902Z,18.80
2019-05-23T03:08:28.881Z,17.13
2019-05-23T03:11:13.246Z,17.90
2019-05-23T03:13:42.266Z,17.80
2019-05-23T03:16:12.603Z,19.70
2019-05-23T03:18:41.073Z,16.97
2019-05-23T03:21:08.513Z,16.60
2019-05-23T03:23:35.289Z,17.73
2019-05-23T03:26:20.656Z,19.63
2019-05-23T03:28:47.942Z,20.30
2019-05-23T03:31:29.495Z,19.33
2019-05-23T03:33:47.580Z,20.70
2019-05-23T03:36:14.737Z,20.00
2019-05-23T03:38:41.582Z,18.53
2019-05-23T03:41:08.205Z,19.23
2019-05-23T03:43:36.107Z,16.97
2019-05-23T03:46:10.517Z,17.73
2019-05-23T03:48:37.974Z,16.03
2019-05-23T03:51:05.845Z,14.37
2019-05-23T03:53:33.655Z,13.27
2019-05-23T03:56:00.590Z,12.57
2019-05-23T03:58:27.121Z,11.80
2019-05-23T04:00:55.358Z,11.63
2019-05-23T04:03:21.740Z,11.37
2019-05-23T04:05:48.970Z,12.47
2019-05-23T04:08:15.864Z,12.70
2019-05-23T04:10:42.261Z,11.60
2019-05-23T04:13:08.905Z,11.33
2019-05-23T04:15:35.387Z,10.43
2019-05-23T04:18:02.931Z,10.63
2019-05-23T04:20:30.899Z,9.83
2019-05-23T04:22:57.322Z,9.67
2019-05-23T04:25:23.805Z,9.40
2019-05-23T04:27:50.414Z,9.57
2019-05-23T04:30:18.737Z,8.70
2019-05-23T04:32:45.067Z,8.97
2019-05-23T04:35:11.756Z,8.57
2019-05-23T04:37:38.494Z,8.43
2019-05-23T04:40:08.380Z,8.00
2019-05-23T04:42:34.702Z,8.53
2019-05-23T04:45:01.305Z,8.13
2019-05-23T04:47:27.760Z,7.77
2019-05-23T04:49:54.150Z,7.10
2019-05-23T04:52:21.316Z,8.33
2019-05-23T04:54:47.734Z,7.50
2019-05-23T04:57:16.018Z,7.80
2019-05-23T04:59:42.403Z,7.63
2019-05-23T05:02:24.863Z,7.20
2019-05-23T05:04:37.460Z,7.00
2019-05-23T05:07:04.370Z,6.50
2019-05-23T05:09:32.860Z,6.30
2019-05-23T05:11:59.595Z,6.20
2019-05-23T05:14:26.082Z,4.93
2019-05-23T05:16:52.509Z,4.60
2019-05-23T05:19:18.999Z,4.70
2019-05-23T05:21:45.338Z,5.27
2019-05-23T05:24:11.967Z,4.40
2019-05-23T05:26:38.628Z,5.27
2019-05-23T05:29:06.602Z,5.30
2019-05-23T05:31:32.947Z,4.47
2019-05-23T05:33:59.566Z,4.20
2019-05-23T05:36:25.897Z,4.27
2019-05-23T05:38:52.360Z,4.03
2019-05-23T05:41:20.066Z,5.23
2019-05-23T05:43:46.544Z,4.60
2019-05-23T05:46:13.380Z,4.73
2019-05-23T05:48:40.233Z,4.13
2019-05-23T05:51:07.315Z,3.33
2019-05-23T05:53:34.355Z,4.17
2019-05-23T05:56:00.815Z,3.80
2019-05-23T05:58:27.225Z,3.60
2019-05-23T06:00:55.619Z,4.57
2019-05-23T06:03:22.008Z,3.77
2019-05-23T06:05:57.803Z,4.00
2019-05-23T06:08:25.701Z,3.47
2019-05-23T06:10:52.550Z,4.33
2019-05-23T06:13:19.644Z,5.90
2019-05-23T06:15:46.383Z,8.27
2019-05-23T06:18:13.172Z,5.10
2019-05-23T06:20:42.382Z,11.57
2019-05-23T06:23:10.541Z,10.73
2019-05-23T06:25:37.567Z,4.97
2019-05-23T06:28:04.916Z,3.90
2019-05-23T06:30:32.984Z,3.60
2019-05-23T06:32:59.368Z,3.30
2019-05-23T06:35:26.896Z,3.30
2019-05-23T06:37:53.265Z,3.53
2019-05-23T06:40:20.065Z,4.20
2019-05-23T06:42:50.345Z,3.47
2019-05-23T06:45:16.138Z,4.00
2019-05-23T06:47:42.701Z,4.73
2019-05-23T06:50:14.796Z,3.70
2019-05-23T06:52:41.235Z,4.50
2019-05-23T06:55:07.715Z,4.87
2019-05-23T06:57:34.089Z,4.67
2019-05-23T07:00:00.427Z,3.90
2019-05-23T07:02:31.709Z,4.33
2019-05-23T07:04:55.555Z,4.30
2019-05-23T07:07:22.281Z,4.60
2019-05-23T07:09:48.963Z,3.73
2019-05-23T07:12:16.903Z,3.70
2019-05-23T07:14:43.344Z,3.60
2019-05-23T07:17:10.274Z,3.70
2019-05-23T07:19:36.640Z,3.60
2019-05-23T07:22:03.213Z,3.60
2019-05-23T07:24:30.091Z,4.53
2019-05-23T07:26:56.863Z,3.60
2019-05-23T07:29:23.267Z,4.30
2019-05-23T07:31:49.685Z,4.20
2019-05-23T07:34:16.340Z,4.10
2019-05-23T07:36:43.045Z,4.13
2019-05-23T07:39:11.604Z,4.23
2019-05-23T07:41:37.932Z,4.80
2019-05-23T07:44:04.595Z,4.70
2019-05-23T07:46:31.506Z,4.67
2019-05-23T07:48:58.027Z,5.37
2019-05-23T07:51:24.356Z,5.27
2019-05-23T07:54:08.014Z,6.10
2019-05-23T07:56:47.169Z,6.13
2019-05-23T07:59:13.733Z,7.00
2019-05-23T08:01:44.966Z,5.20
2019-05-23T08:04:21.040Z,6.60
2019-05-23T08:06:41.606Z,6.63
2019-05-23T08:09:09.153Z,5.97
2019-05-23T08:11:35.687Z,5.93
2019-05-23T08:14:02.692Z,7.00
2019-05-23T08:16:29.042Z,7.17
2019-05-23T08:18:55.472Z,6.93
2019-05-23T08:21:22.098Z,5.60
2019-05-23T08:23:48.585Z,7.13
2019-05-23T08:26:16.900Z,6.63
2019-05-23T08:29:11.444Z,6.67
2019-05-23T08:31:11.672Z,6.33
2019-05-23T08:33:39.511Z,8.07
2019-05-23T08:36:07.481Z,6.50
2019-05-23T08:38:36.617Z,6.70
2019-05-23T08:41:05.926Z,6.73
2019-05-23T08:43:33.379Z,7.33
2019-05-23T08:46:00.044Z,6.47
2019-05-23T08:48:27.711Z,7.00
2019-05-23T08:50:54.904Z,7.70
2019-05-23T08:53:21.352Z,5.33
2019-05-23T08:55:48.041Z,5.57
2019-05-23T08:58:15.788Z,7.47
2019-05-23T09:00:42.146Z,6.17
2019-05-23T09:03:09.714Z,5.97
2019-05-23T09:05:38.129Z,8.07
2019-05-23T09:08:05.351Z,6.50
2019-05-23T09:10:32.347Z,7.90
2019-05-23T09:12:59.336Z,6.57
2019-05-23T09:15:25.866Z,7.80
2019-05-23T09:17:54.091Z,6.43
2019-05-23T09:20:21.201Z,6.53
2019-05-23T09:22:47.623Z,6.93
2019-05-23T09:25:15.560Z,7.13
2019-05-23T09:27:41.967Z,10.07
2019-05-23T09:30:10.395Z,10.70
2019-05-23T09:32:36.907Z,12.43
2019-05-23T09:35:19.720Z,10.53
2019-05-23T09:37:33.408Z,9.30
2019-05-23T09:39:59.875Z,10.07
2019-05-23T09:42:26.339Z,10.50
2019-05-23T09:44:52.782Z,11.00
2019-05-23T09:47:19.207Z,11.43
2019-05-23T09:49:53.586Z,14.13
2019-05-23T09:52:15.934Z,12.23
2019-05-23T09:54:42.342Z,7.77
2019-05-23T09:57:09.665Z,11.00
2019-05-23T09:59:36.124Z,10.57
2019-05-23T10:02:02.561Z,10.47
2019-05-23T10:04:28.958Z,7.70
2019-05-23T10:06:55.431Z,7.70
2019-05-23T10:09:21.858Z,10.73
2019-05-23T10:11:48.543Z,9.37
2019-05-23T10:14:16.897Z,6.53
2019-05-23T10:16:43.549Z,7.37
2019-05-23T10:19:10.738Z,10.00
2019-05-23T10:21:37.123Z,8.90
2019-05-23T10:24:03.746Z,6.00
2019-05-23T10:26:30.229Z,12.67
2019-05-23T10:28:58.756Z,13.27
2019-05-23T10:31:25.452Z,10.77
2019-05-23T10:33:51.977Z,7.53
2019-05-23T10:36:20.397Z,7.70
2019-05-23T10:38:47.008Z,6.20
2019-05-23T10:41:13.523Z,5.60
2019-05-23T10:43:42.797Z,4.60
2019-05-23T10:46:10.727Z,4.47
2019-05-23T10:48:40.312Z,6.10
2019-05-23T10:51:08.043Z,6.40
2019-05-23T10:53:42.044Z,5.20
2019-05-23T10:56:10.393Z,5.33
2019-05-23T10:58:41.539Z,6.50
2019-05-23T11:01:10.294Z,4.90
2019-05-23T11:03:37.928Z,5.03
2019-05-23T11:06:15.455Z,4.80
2019-05-23T11:08:35.845Z,5.17
2019-05-23T11:11:02.518Z,4.20
2019-05-23T11:13:29.311Z,5.50
2019-05-23T11:15:55.822Z,5.83
2019-05-23T11:18:26.949Z,6.00
2019-05-23T11:20:53.427Z,4.40
2019-05-23T11:23:23.647Z,5.10
2019-05-23T11:26:01.386Z,4.83
2019-05-23T11:28:20.486Z,6.23
2019-05-23T11:30:57.286Z,7.20
2019-05-23T11:33:28.068Z,4.10
2019-05-23T11:35:57.973Z,5.30
2019-05-23T11:38:26.950Z,5.43
2019-05-23T11:40:57.131Z,6.63
2019-05-23T11:43:25.432Z,8.40
2019-05-23T11:46:04.372Z,7.53
2019-05-23T11:48:34.161Z,4.73
2019-05-23T11:51:01.124Z,3.90
2019-05-23T11:53:27.998Z,3.60
2019-05-23T11:55:54.809Z,4.03
2019-05-23T11:58:21.233Z,2.93
2019-05-23T12:00:59.489Z,3.50
2019-05-23T12:03:27.876Z,4.10
2019-05-23T12:05:56.342Z,4.03
2019-05-23T12:08:22.807Z,5.23
2019-05-23T12:10:49.185Z,4.90
2019-05-23T12:13:15.802Z,3.93
2019-05-23T12:15:48.517Z,3.10
2019-05-23T12:18:15.153Z,3.60
2019-05-23T12:20:41.811Z,3.63
2019-05-23T12:23:11.046Z,3.63
2019-05-23T12:25:36.436Z,3.67
2019-05-23T12:28:05.401Z,4.60
2019-05-23T12:30:35.160Z,11.37
2019-05-23T12:33:03.535Z,9.00
2019-05-23T12:35:30.188Z,6.83
2019-05-23T12:38:02.646Z,7.77
2019-05-23T12:40:32.419Z,5.07
2019-05-23T12:42:59.794Z,7.67
2019-05-23T12:45:27.499Z,4.33
2019-05-23T12:47:57.047Z,2.73
2019-05-23T12:50:36.563Z,4.33
2019-05-23T12:53:06.069Z,3.50
2019-05-23T12:55:32.431Z,3.00
2019-05-23T12:58:01.216Z,3.40
2019-05-23T13:00:37.856Z,5.53
2019-05-23T13:03:09.398Z,5.90
2019-05-23T13:05:42.293Z,4.63
2019-05-23T13:08:09.858Z,2.37
2019-05-23T13:10:36.723Z,3.57
2019-05-23T13:13:05.414Z,4.10
2019-05-23T13:15:31.954Z,4.10
2019-05-23T13:18:01.556Z,6.43
2019-05-23T13:20:31.220Z,3.77
2019-05-23T13:22:59.862Z,4.00
2019-05-23T13:25:28.431Z,4.03
2019-05-23T13:27:58.770Z,3.00
2019-05-23T13:30:26.405Z,2.70
2019-05-23T13:32:57.062Z,2.97
2019-05-23T13:35:24.849Z,3.40
2019-05-23T13:37:54.520Z,2.60
2019-05-23T13:40:21.186Z,2.50
2019-05-23T13:42:48.025Z,2.57
2019-05-23T13:45:16.553Z,2.10
2019-05-23T13:47:49.768Z,2.60
2019-05-23T13:50:18.184Z,2.10
2019-05-23T13:52:47.572Z,2.40
2019-05-23T13:55:14.388Z,3.03
2019-05-23T13:57:45.874Z,2.60
2019-05-23T14:00:14.629Z,3.83
2019-05-23T14:02:45.441Z,3.50
2019-05-23T14:05:13.320Z,4.80
2019-05-23T14:07:41.718Z,2.90
2019-05-23T14:10:11.946Z,2.30
2019-05-23T14:12:38.656Z,2.70
2019-05-23T14:15:05.788Z,2.13
2019-05-23T14:17:36.158Z,2.43
2019-05-23T14:20:04.150Z,2.10
2019-05-23T14:22:32.472Z,2.33
2019-05-23T14:24:58.987Z,3.27
2019-05-23T14:27:27.290Z,3.03
2019-05-23T14:29:56.801Z,2.47
2019-05-23T14:32:27.877Z,2.40
2019-05-23T14:34:57.521Z,2.20
2019-05-23T14:37:37.940Z,2.17
2019-05-23T14:40:05.591Z,2.33
2019-05-23T14:42:45.739Z,2.40
2019-05-23T14:45:33.057Z,2.80
2019-05-23T14:48:02.238Z,2.60
2019-05-23T14:50:38.077Z,3.20
2019-05-23T14:53:07.776Z,2.10
2019-05-23T14:55:34.281Z,1.93
2019-05-23T14:58:03.124Z,3.80
2019-05-23T15:00:29.702Z,2.40
2019-05-23T15:02:58.059Z,3.13
2019-05-23T15:05:27.321Z,2.30
2019-05-23T15:07:58.299Z,2.90
2019-05-23T15:10:24.743Z,2.77
2019-05-23T15:12:53.045Z,3.47
2019-05-23T15:15:19.807Z,2.20
2019-05-23T15:17:46.233Z,4.60
2019-05-23T15:20:14.698Z,2.57
2019-05-23T15:22:42.965Z,2.57
2019-05-23T15:25:09.614Z,4.00
2019-05-23T15:27:37.890Z,2.43
2019-05-23T15:30:08.084Z,3.47
2019-05-23T15:32:34.723Z,2.33
2019-05-23T15:35:01.317Z,2.17
2019-05-23T15:37:29.828Z,2.20
2019-05-23T15:40:00.986Z,2.97
2019-05-23T15:42:29.302Z,2.80
2019-05-23T15:44:55.955Z,4.57
2019-05-23T15:47:25.651Z,3.93
2019-05-23T15:49:55.856Z,2.87
2019-05-23T15:52:27.099Z,2.43
2019-05-23T15:55:01.366Z,3.13
2019-05-23T15:57:44.766Z,3.37
2019-05-23T16:00:25.969Z,3.10
2019-05-23T16:03:01.973Z,2.43
2019-05-23T16:05:28.875Z,3.07
2019-05-23T16:07:55.305Z,2.83
2019-05-23T16:10:26.182Z,2.90
2019-05-23T16:12:52.943Z,3.10
2019-05-23T16:15:19.366Z,3.13
2019-05-23T16:17:47.030Z,3.70
2019-05-23T16:20:13.542Z,2.70
2019-05-23T16:22:40.270Z,3.47
2019-05-23T16:25:07.327Z,2.33
2019-05-23T16:27:35.670Z,2.33
2019-05-23T16:30:04.903Z,2.23
2019-05-23T16:32:31.433Z,2.30
2019-05-23T16:35:01.780Z,2.27
2019-05-23T16:37:30.066Z,2.50
2019-05-23T16:39:59.228Z,2.70
2019-05-23T16:42:27.942Z,3.57
2019-05-23T16:44:54.598Z,4.00
2019-05-23T16:47:24.713Z,2.90
2019-05-23T16:49:53.121Z,3.10
2019-05-23T16:52:19.594Z,2.30
2019-05-23T16:54:48.031Z,1.67
2019-05-23T16:57:20.182Z,1.70
2019-05-23T17:00:03.548Z,4.73
2019-05-23T17:02:51.538Z,2.33
2019-05-23T17:05:32.625Z,4.63
2019-05-23T17:08:07.263Z,3.03
2019-05-23T17:10:54.374Z,2.77
2019-05-23T17:13:30.075Z,1.50
2019-05-23T17:16:01.593Z,1.97
2019-05-23T17:18:47.861Z,16.17
2019-05-23T17:21:19.097Z,3.00
2019-05-23T17:23:53.871Z,2.33
2019-05-23T17:26:31.106Z,2.70
2019-05-23T17:28:59.861Z,3.50
2019-05-23T17:31:28.584Z,6.50
2019-05-23T17:33:55.083Z,3.90
2019-05-23T17:36:22.661Z,3.63
2019-05-23T17:38:51.102Z,3.97
2019-05-23T17:41:24.538Z,6.03
2019-05-23T17:43:58.673Z,4.00
2019-05-23T17:46:27.120Z,3.30
2019-05-23T17:48:53.748Z,5.73
2019-05-23T17:51:23.182Z,4.87
2019-05-23T17:53:50.080Z,6.87
2019-05-23T17:56:18.686Z,4.57
2019-05-23T17:58:47.088Z,6.37
2019-05-23T18:01:14.051Z,6.13
2019-05-23T18:03:40.535Z,12.83
2019-05-23T18:06:07.157Z,6.60
2019-05-23T18:08:34.723Z,7.83
2019-05-23T18:11:01.093Z,8.20
2019-05-23T18:13:29.949Z,23.90
2019-05-23T18:15:59.150Z,33.90
2019-05-23T18:18:26.803Z,10.40
2019-05-23T18:20:53.123Z,25.03
2019-05-23T18:23:21.539Z,19.00
2019-05-23T18:25:47.962Z,67.70
2019-05-23T18:28:18.214Z,60.13
2019-05-23T18:30:50.643Z,36.23
2019-05-23T18:33:18.435Z,48.67
2019-05-23T18:35:44.772Z,43.57
2019-05-23T18:38:13.191Z,15.23
2019-05-23T18:40:39.455Z,12.80
2019-05-23T18:43:09.499Z,6.07
2019-05-23T18:45:37.958Z,4.13
2019-05-23T18:48:06.329Z,3.33
2019-05-23T18:50:41.131Z,3.20
2019-05-23T18:53:08.540Z,3.67
2019-05-23T18:55:37.776Z,4.83
2019-05-23T18:58:06.453Z,4.27
2019-05-23T19:00:56.845Z,4.30
2019-05-23T19:03:27.585Z,8.40
2019-05-23T19:05:55.948Z,9.83
2019-05-23T19:08:23.038Z,6.63
2019-05-23T19:10:49.660Z,6.63
2019-05-23T19:13:16.160Z,7.77
2019-05-23T19:15:46.716Z,9.37
2019-05-23T19:18:16.174Z,10.43
2019-05-23T19:20:48.656Z,9.03
2019-05-23T19:23:12.612Z,6.40
2019-05-23T19:25:39.453Z,3.37
2019-05-23T19:28:09.533Z,4.70
2019-05-23T19:30:46.745Z,5.87
2019-05-23T19:33:17.880Z,7.73
2019-05-23T19:35:47.356Z,4.80
2019-05-23T19:38:15.466Z,10.90
2019-05-23T19:40:42.448Z,12.63
2019-05-23T19:43:12.464Z,6.37
2019-05-23T19:45:39.501Z,3.63
2019-05-23T19:48:06.281Z,5.40
2019-05-23T19:50:33.799Z,4.57
2019-05-23T19:53:02.257Z,5.07
2019-05-23T19:55:28.432Z,4.57
2019-05-23T19:57:56.335Z,4.07
2019-05-23T20:00:24.799Z,4.07
2019-05-23T20:02:55.721Z,4.47
2019-05-23T20:05:29.309Z,4.13
2019-05-23T20:07:57.686Z,5.10
2019-05-23T20:10:24.729Z,4.00
2019-05-23T20:12:51.633Z,4.27
2019-05-23T20:15:18.038Z,4.17
2019-05-23T20:17:46.154Z,3.97
2019-05-23T20:20:12.897Z,3.13
2019-05-23T20:22:39.644Z,2.67
2019-05-23T20:25:09.391Z,3.30
2019-05-23T20:27:37.051Z,2.90
2019-05-23T20:30:08.830Z,5.60
2019-05-23T20:32:38.056Z,3.90
2019-05-23T20:35:08.011Z,5.13
2019-05-23T20:37:36.908Z,4.93
2019-05-23T20:40:06.808Z,4.23
2019-05-23T20:42:35.195Z,3.70
2019-05-23T20:45:06.700Z,4.40
2019-05-23T20:47:33.761Z,3.33
2019-05-23T20:50:00.219Z,2.97
2019-05-23T20:52:27.009Z,3.27
2019-05-23T20:54:56.716Z,3.50
2019-05-23T20:57:26.933Z,3.57
2019-05-23T20:59:53.301Z,4.60
2019-05-23T21:02:21.073Z,3.57
2019-05-23T21:04:49.347Z,3.67
2019-05-23T21:07:15.802Z,3.77
2019-05-23T21:09:43.676Z,3.53
2019-05-23T21:12:28.787Z,4.10
2019-05-23T21:14:46.256Z,4.03
2019-05-23T21:17:15.700Z,3.97
2019-05-23T21:19:43.661Z,3.53
2019-05-23T21:22:10.082Z,4.03
2019-05-23T21:24:36.599Z,4.43
2019-05-23T21:27:03.059Z,4.50
2019-05-23T21:29:31.378Z,4.20
2019-05-23T21:31:57.622Z,4.90
2019-05-23T21:34:26.999Z,4.23
2019-05-23T21:36:53.432Z,4.37
2019-05-23T21:39:21.844Z,4.70
2019-05-23T21:41:48.251Z,6.93
2019-05-23T21:44:18.439Z,7.03
2019-05-23T21:46:49.805Z,7.90
2019-05-23T21:49:16.208Z,8.63
2019-05-23T21:51:42.575Z,5.20
2019-05-23T21:54:11.719Z,5.63
2019-05-23T21:56:42.866Z,6.57
2019-05-23T21:59:13.062Z,6.97
2019-05-23T22:01:52.146Z,5.83
2019-05-23T22:04:27.992Z,6.40
2019-05-23T22:06:56.418Z,7.03
2019-05-23T22:09:24.942Z,6.90
2019-05-23T22:11:53.360Z,6.33
2019-05-23T22:14:21.778Z,5.30
2019-05-23T22:16:48.156Z,4.80
2019-05-23T22:19:16.687Z,5.00
2019-05-23T22:21:43.234Z,3.73
2019-05-23T22:24:10.200Z,5.20
2019-05-23T22:26:36.686Z,4.33
2019-05-23T22:29:03.353Z,4.40
2019-05-23T22:31:31.852Z,4.43
2019-05-23T22:34:00.150Z,3.43
2019-05-23T22:36:28.485Z,3.87
2019-05-23T22:38:54.913Z,5.43
2019-05-23T22:41:31.774Z,5.13
2019-05-23T22:43:49.572Z,4.70
2019-05-23T22:46:16.977Z,3.87
2019-05-23T22:48:47.128Z,3.57
2019-05-23T22:51:17.190Z,4.33
2019-05-23T22:53:42.900Z,5.77
2019-05-23T22:56:18.782Z,4.70
2019-05-23T22:58:49.868Z,5.20
2019-05-23T23:01:19.543Z,3.80
2019-05-23T23:03:49.782Z,4.53
2019-05-23T23:06:19.863Z,5.37
2019-05-23T23:08:46.272Z,4.10
2019-05-23T23:11:12.747Z,3.87
2019-05-23T23:13:41.040Z,4.80
2019-05-23T23:16:09.475Z,5.07
2019-05-23T23:18:35.938Z,5.23
2019-05-23T23:21:02.300Z,6.57
2019-05-23T23:23:28.683Z,4.80
2019-05-23T23:25:58.864Z,5.00
2019-05-23T23:28:27.248Z,9.03
2019-05-23T23:31:00.346Z,7.87
2019-05-23T23:33:28.525Z,9.60
2019-05-23T23:35:56.827Z,6.70
2019-05-23T23:38:24.169Z,6.97
2019-05-23T23:40:52.468Z,8.63
2019-05-23T23:43:20.772Z,7.90
2019-05-23T23:46:08.061Z,6.90
2019-05-23T23:48:59.189Z,6.50
2019-05-23T23:51:43.940Z,5.07
2019-05-23T23:54:29.381Z,4.30
2019-05-23T23:57:19.365Z,3.70
2019-05-23T23:59:46.733Z,5.03
